»·PEaware :: AAL485 KBFL-KPHX

AAL485 :: KBFL-KPHX

FLIGHT INFORMATION

Flight Status: Arrived
Operator:
American Airlines
More flights by this operator :: More flights under this callsign
Pilot: Anonymous 39875 (39875)
Aircraft: EMBRAER EMB-170/175
(E170)
More flights by this aircraft type
Origin: KBFL Meadows
United States
Destination: KPHX Phoenix Sky Harbor Intl
United States
More flights between these airports :: More routes between these airports
Route: MEADO5 EHF V197 PMD J6 HEC PRFUM WOTRO BRUSR1
File this flight plan on PilotEdge
Remarks: RMK / SIMBRIEF
Altitude:
(Current/Filed)
29,000ft
Speed:
(Current/Filed)
404kts
Departed: 02-Dec-22 06:03 PM
Arrived: 02-Dec-22 07:11 PM
Distance/Time
Traveled:
369nm/1:08
Distance/Time
To Go:
Arrived

Flight Plot

Page will automatically refresh every two minutes.

Flight plan parsing failed; only flown route is shown


Map Options




Map Legend


Flown Route
Filed Route
Departure Airport
Arrival Airport
Navaid (VOR, NDB)
Fix

Horizontal Profiles

Position Reports

Time Latitude Longitude Heading Altitude Ground
Speed
02-Dec-22 17:43 35.436905 -119.054872 44 517ft 0kts
02-Dec-22 17:44 35.436905 -119.054872 44 517ft 0kts
02-Dec-22 17:45 35.436905 -119.054872 44 517ft 0kts
02-Dec-22 17:46 35.436905 -119.054872 44 517ft 0kts
02-Dec-22 17:47 35.436905 -119.054872 44 517ft 0kts
02-Dec-22 17:48 35.436905 -119.054872 44 517ft 0kts
02-Dec-22 17:49 35.436905 -119.054872 44 517ft 0kts
02-Dec-22 17:50 35.436905 -119.054872 44 517ft 0kts
02-Dec-22 17:51 35.436905 -119.054872 44 517ft 0kts
02-Dec-22 17:52 35.436905 -119.054872 44 517ft 0kts
02-Dec-22 17:53 35.436905 -119.054872 44 517ft 0kts
02-Dec-22 17:54 35.436844 -119.054945 47 517ft 2kts
02-Dec-22 17:55 35.436828 -119.055547 135 517ft 0kts
02-Dec-22 17:56 35.436828 -119.055547 135 517ft 0kts
02-Dec-22 17:57 35.436828 -119.055547 135 517ft 0kts
02-Dec-22 17:58 35.436209 -119.055088 193 517ft 7kts
02-Dec-22 17:59 35.433368 -119.053367 135 517ft 23kts
02-Dec-22 18:00 35.429042 -119.048152 135 517ft 18kts
02-Dec-22 18:01 35.425888 -119.044607 216 517ft 4kts
02-Dec-22 18:02 35.426334 -119.047184 314 517ft 45kts
02-Dec-22 18:03 35.461072 -119.090724 313 2216ft 212kts
02-Dec-22 18:04 35.495176 -119.148720 269 4665ft 221kts
02-Dec-22 18:05 35.446818 -119.184363 159 7251ft 251kts
02-Dec-22 18:06 35.388792 -119.132623 142 10080ft 265kts
02-Dec-22 18:07 35.324504 -119.065565 142 12944ft 339kts
02-Dec-22 18:08 35.251188 -118.986274 142 15756ft 362kts
02-Dec-22 18:09 35.175483 -118.900386 142 18405ft 380kts
02-Dec-22 18:11 35.106985 -118.797088 134 20610ft 401kts
02-Dec-22 18:12 35.036940 -118.687365 136 22821ft 417kts
02-Dec-22 18:13 34.963811 -118.574104 136 24870ft 431kts
02-Dec-22 18:14 34.887048 -118.455811 137 26529ft 463kts
02-Dec-22 18:15 34.805889 -118.330708 138 28130ft 475kts
02-Dec-22 18:16 34.723172 -118.203777 138 29159ft 479kts
02-Dec-22 18:17 34.656321 -118.062238 105 29179ft 522kts
02-Dec-22 18:18 34.673268 -117.883795 82 29175ft 536kts
02-Dec-22 18:19 34.698413 -117.705704 83 29172ft 533kts
02-Dec-22 18:20 34.720934 -117.527830 84 29193ft 533kts
02-Dec-22 18:21 34.742950 -117.349665 84 29207ft 533kts
02-Dec-22 18:22 34.764729 -117.171428 84 29208ft 534kts
02-Dec-22 18:23 34.786265 -116.992870 84 29199ft 534kts
02-Dec-22 18:24 34.807581 -116.813768 84 29189ft 534kts
02-Dec-22 18:25 34.828622 -116.634770 85 29178ft 535kts
02-Dec-22 18:26 34.849424 -116.455649 85 29203ft 534kts
02-Dec-22 18:27 34.869886 -116.276883 85 29199ft 534kts
02-Dec-22 18:28 34.890098 -116.097837 85 29208ft 534kts
02-Dec-22 18:29 34.910083 -115.918629 85 29210ft 534kts
02-Dec-22 18:30 34.929787 -115.739285 85 29205ft 534kts
02-Dec-22 18:31 34.949257 -115.559625 85 29198ft 534kts
02-Dec-22 18:32 34.968457 -115.379922 85 29192ft 535kts
02-Dec-22 18:33 34.987331 -115.200742 85 29187ft 534kts
02-Dec-22 18:34 35.005988 -115.021006 85 29187ft 534kts
02-Dec-22 18:35 35.024359 -114.841324 85 29182ft 534kts
02-Dec-22 18:36 35.042473 -114.661537 85 29179ft 534kts
02-Dec-22 18:37 35.060331 -114.481553 85 29179ft 534kts
02-Dec-22 18:37 35.074971 -114.331853 85 29183ft 534kts
02-Dec-22 18:39 35.095167 -114.122145 85 29205ft 533kts
02-Dec-22 18:40 35.113865 -113.942330 83 29215ft 534kts
02-Dec-22 18:41 35.133047 -113.762516 85 29218ft 534kts
02-Dec-22 18:42 35.148202 -113.581886 86 29220ft 534kts
02-Dec-22 18:42 35.160236 -113.430943 86 29225ft 535kts
02-Dec-22 18:43 35.134021 -113.258796 126 29239ft 506kts
02-Dec-22 18:45 35.044496 -113.094064 132 28947ft 503kts
02-Dec-22 18:46 34.966780 -112.953225 132 27729ft 500kts
02-Dec-22 18:46 34.901700 -112.836106 132 26805ft 500kts
02-Dec-22 18:47 34.823971 -112.696690 131 25701ft 497kts
02-Dec-22 18:48 34.745872 -112.557230 131 24584ft 499kts
02-Dec-22 18:49 34.657019 -112.436119 150 23453ft 461kts
02-Dec-22 18:51 34.546459 -112.327244 150 21660ft 413kts
02-Dec-22 18:51 34.473240 -112.256005 150 20172ft 396kts
02-Dec-22 18:52 34.380022 -112.213541 176 18433ft 337kts
02-Dec-22 18:53 34.291314 -112.189909 177 16950ft 316kts
02-Dec-22 18:54 34.206966 -112.168128 176 15547ft 306kts
02-Dec-22 18:55 34.124598 -112.146919 176 14221ft 300kts
02-Dec-22 18:56 34.044050 -112.142192 192 12953ft 285kts
02-Dec-22 18:57 33.965313 -112.150656 191 11753ft 283kts
02-Dec-22 18:58 33.887141 -112.160402 192 10552ft 281kts
02-Dec-22 18:59 33.812745 -112.177238 191 9360ft 263kts
02-Dec-22 19:00 33.741500 -112.192436 189 8241ft 255kts
02-Dec-22 19:01 33.674237 -112.206612 189 7217ft 237kts
02-Dec-22 19:02 33.610384 -112.220076 189 6303ft 230kts
02-Dec-22 19:03 33.547830 -112.233408 189 5677ft 228kts
02-Dec-22 19:04 33.488322 -112.246238 189 4800ft 206kts
02-Dec-22 19:05 33.445825 -112.221355 114 4059ft 182kts
02-Dec-22 19:06 33.439330 -112.165865 87 3288ft 156kts
02-Dec-22 19:07 33.441223 -112.117612 90 2708ft 145kts
02-Dec-22 19:08 33.440896 -112.069814 91 1874ft 142kts
02-Dec-22 19:09 33.440899 -112.022804 90 1178ft 135kts
02-Dec-22 19:10 33.440386 -112.004686 138 1145ft 24kts
02-Dec-22 19:11 33.439678 -111.998338 138 1145ft 4kts
02-Dec-22 19:12 33.437911 -111.998715 269 1145ft 0kts
02-Dec-22 19:13 33.437911 -111.998715 269 1145ft 0kts

Navigation Log

Ident Type
Flight plan parsing failed, navigation log unavailable